createdAt,value
2018-01-23T00:00:34.722Z,92
2018-01-23T00:01:34.903Z,92
2018-01-23T00:02:34.877Z,92
2018-01-23T00:03:34.683Z,92
2018-01-23T00:04:34.851Z,93
2018-01-23T00:05:34.822Z,93
2018-01-23T00:06:34.885Z,93
2018-01-23T00:07:34.533Z,93
2018-01-23T00:08:34.521Z,93
2018-01-23T00:09:34.865Z,93
2018-01-23T00:10:34.914Z,93
2018-01-23T00:11:34.554Z,94
2018-01-23T00:12:34.913Z,94
2018-01-23T00:13:34.901Z,94
2018-01-23T00:14:34.919Z,94
2018-01-23T00:16:34.575Z,94
2018-01-23T00:17:34.575Z,94
2018-01-23T00:18:34.884Z,94
2018-01-23T00:19:34.945Z,94
2018-01-23T00:20:34.570Z,94
2018-01-23T00:21:34.937Z,94
2018-01-23T00:22:34.921Z,94
2018-01-23T00:23:34.939Z,94
2018-01-23T00:24:34.971Z,94
2018-01-23T00:25:34.983Z,94
2018-01-23T00:26:34.511Z,94
2018-01-23T00:27:34.944Z,95
2018-01-23T00:28:34.600Z,95
2018-01-23T00:29:34.973Z,95
2018-01-23T00:30:34.585Z,95
2018-01-23T00:31:34.609Z,95
2018-01-23T00:32:34.567Z,95
2018-01-23T00:33:34.978Z,95
2018-01-23T00:34:34.571Z,95
2018-01-23T00:37:34.576Z,95
2018-01-23T00:38:34.589Z,95
2018-01-23T00:40:34.985Z,95
2018-01-23T00:42:35.022Z,95
2018-01-23T00:43:34.580Z,95
2018-01-23T00:45:34.936Z,95
2018-01-23T00:46:34.623Z,95
2018-01-23T00:47:34.629Z,95
2018-01-23T00:48:34.969Z,95
2018-01-23T00:49:34.950Z,95
2018-01-23T00:50:34.971Z,95
2018-01-23T00:51:34.960Z,95
2018-01-23T00:52:35.004Z,95
2018-01-23T00:54:34.985Z,95
2018-01-23T00:55:34.637Z,95
2018-01-23T00:56:34.999Z,95
2018-01-23T00:57:34.591Z,95
2018-01-23T00:58:35.239Z,95
2018-01-23T00:59:34.578Z,95
2018-01-23T01:00:34.996Z,95
2018-01-23T01:01:35.010Z,95
2018-01-23T01:02:34.629Z,95
2018-01-23T01:03:35.044Z,95
2018-01-23T01:04:35.033Z,95
2018-01-23T01:05:34.727Z,95
2018-01-23T01:06:35.058Z,95
2018-01-23T01:07:34.985Z,94
2018-01-23T01:08:34.616Z,94
2018-01-23T01:09:34.596Z,94
2018-01-23T01:10:34.630Z,94
2018-01-23T01:12:34.683Z,94
2018-01-23T01:13:35.029Z,94
2018-01-23T01:14:34.649Z,94
2018-01-23T01:15:34.843Z,94
2018-01-23T01:16:34.637Z,94
2018-01-23T01:17:34.671Z,94
2018-01-23T01:18:34.633Z,94
2018-01-23T01:19:34.731Z,94
2018-01-23T01:20:34.812Z,94
2018-01-23T01:21:35.077Z,94
2018-01-23T01:22:34.633Z,94
2018-01-23T01:23:34.897Z,94
2018-01-23T01:25:34.665Z,94
2018-01-23T01:26:34.699Z,94
2018-01-23T01:27:34.710Z,94
2018-01-23T01:28:34.889Z,94
2018-01-23T01:29:34.678Z,94
2018-01-23T01:30:34.634Z,94
2018-01-23T01:31:34.705Z,94
2018-01-23T01:32:34.893Z,94
2018-01-23T01:33:34.732Z,94
2018-01-23T01:34:34.742Z,94
2018-01-23T01:35:35.107Z,94
2018-01-23T01:36:34.848Z,94
2018-01-23T01:37:34.719Z,94
2018-01-23T01:38:34.829Z,94
2018-01-23T01:39:34.844Z,94
2018-01-23T01:40:34.710Z,94
2018-01-23T01:41:34.885Z,94
2018-01-23T01:42:34.911Z,94
2018-01-23T01:43:34.848Z,94
2018-01-23T01:44:34.855Z,94
2018-01-23T01:45:34.858Z,94
2018-01-23T01:46:34.716Z,94
2018-01-23T01:47:34.765Z,94
2018-01-23T01:48:34.845Z,93
2018-01-23T01:49:34.857Z,93
2018-01-23T01:50:34.712Z,93
2018-01-23T01:51:34.707Z,93
2018-01-23T01:52:34.778Z,93
2018-01-23T01:53:34.855Z,93
2018-01-23T01:54:34.689Z,93
2018-01-23T01:55:34.861Z,93
2018-01-23T01:56:35.013Z,93
2018-01-23T01:57:34.887Z,93
2018-01-23T01:58:34.734Z,93
2018-01-23T01:59:34.892Z,93
2018-01-23T02:00:34.858Z,93
2018-01-23T02:01:34.884Z,93
2018-01-23T02:02:34.700Z,93
2018-01-23T02:03:34.889Z,92
2018-01-23T02:04:34.748Z,92
2018-01-23T02:05:34.711Z,92
2018-01-23T02:07:34.770Z,92
2018-01-23T02:08:34.750Z,92
2018-01-23T02:09:34.908Z,92
2018-01-23T02:11:34.750Z,92
2018-01-23T02:12:34.741Z,92
2018-01-23T02:13:34.750Z,92
2018-01-23T02:14:34.769Z,92
2018-01-23T02:15:34.737Z,92
2018-01-23T02:16:34.771Z,92
2018-01-23T02:17:34.791Z,92
2018-01-23T02:18:35.144Z,92
2018-01-23T02:19:35.192Z,92
2018-01-23T02:20:35.007Z,92
2018-01-23T02:21:34.930Z,92
2018-01-23T02:22:34.755Z,92
2018-01-23T02:24:34.797Z,92
2018-01-23T02:25:34.754Z,92
2018-01-23T02:26:34.998Z,92
2018-01-23T02:27:34.813Z,92
2018-01-23T02:28:34.780Z,92
2018-01-23T02:29:34.728Z,92
2018-01-23T02:30:34.779Z,92
2018-01-23T02:31:34.999Z,92
2018-01-23T02:32:34.928Z,92
2018-01-23T02:33:35.211Z,92
2018-01-23T02:34:34.944Z,92
2018-01-23T02:35:35.571Z,92
2018-01-23T02:36:35.178Z,92
2018-01-23T02:37:34.792Z,92
2018-01-23T02:38:34.943Z,92
2018-01-23T02:39:34.802Z,92
2018-01-23T02:40:34.828Z,92
2018-01-23T02:41:34.762Z,92
2018-01-23T02:42:35.223Z,92
2018-01-23T02:43:34.967Z,92
2018-01-23T02:44:35.187Z,92
2018-01-23T02:45:34.826Z,92
2018-01-23T02:46:34.766Z,92
2018-01-23T02:47:35.180Z,92
2018-01-23T02:48:34.856Z,92
2018-01-23T02:49:34.817Z,92
2018-01-23T02:50:34.814Z,92
2018-01-23T02:51:34.972Z,92
2018-01-23T02:52:34.793Z,92
2018-01-23T02:53:34.976Z,92
2018-01-23T02:54:35.175Z,92
2018-01-23T02:55:34.797Z,92
2018-01-23T02:56:34.828Z,92
2018-01-23T02:57:35.195Z,92
2018-01-23T02:58:34.823Z,92
2018-01-23T02:59:35.031Z,92
2018-01-23T03:00:34.795Z,92
2018-01-23T03:01:34.955Z,92
2018-01-23T03:02:34.830Z,92
2018-01-23T03:03:34.818Z,92
2018-01-23T03:04:34.858Z,92
2018-01-23T03:05:34.831Z,92
2018-01-23T03:06:35.020Z,92
2018-01-23T03:07:34.919Z,92
2018-01-23T03:08:34.805Z,92
2018-01-23T03:10:35.118Z,92
2018-01-23T03:11:34.994Z,92
2018-01-23T03:12:34.829Z,92
2018-01-23T03:13:35.053Z,92
2018-01-23T03:14:34.841Z,92
2018-01-23T03:15:35.236Z,92
2018-01-23T03:16:34.878Z,92
2018-01-23T03:17:34.843Z,92
2018-01-23T03:18:34.816Z,92
2018-01-23T03:19:34.877Z,92
2018-01-23T03:20:34.863Z,92
2018-01-23T03:21:35.219Z,92
2018-01-23T03:22:35.240Z,92
2018-01-23T03:24:35.001Z,92
2018-01-23T03:25:34.984Z,92
2018-01-23T03:26:34.853Z,92
2018-01-23T03:27:34.941Z,92
2018-01-23T03:28:34.938Z,92
2018-01-23T03:29:34.867Z,92
2018-01-23T03:30:35.054Z,92
2018-01-23T03:31:34.855Z,92
2018-01-23T03:32:35.266Z,92
2018-01-23T03:33:35.280Z,92
2018-01-23T03:34:35.301Z,92
2018-01-23T03:35:35.029Z,92
2018-01-23T03:36:35.273Z,92
2018-01-23T03:37:34.884Z,92
2018-01-23T03:38:35.291Z,92
2018-01-23T03:39:34.947Z,92
2018-01-23T03:40:34.884Z,92
2018-01-23T03:41:35.270Z,92
2018-01-23T03:42:35.205Z,92
2018-01-23T03:43:35.083Z,92
2018-01-23T03:44:34.944Z,92
2018-01-23T03:45:35.075Z,92
2018-01-23T03:46:34.919Z,92
2018-01-23T03:47:35.026Z,92
2018-01-23T03:48:35.334Z,92
2018-01-23T03:49:35.052Z,92
2018-01-23T03:50:34.902Z,92
2018-01-23T03:51:35.086Z,92
2018-01-23T03:52:34.910Z,92
2018-01-23T03:53:34.948Z,92
2018-01-23T03:54:34.909Z,92
2018-01-23T03:55:35.286Z,92
2018-01-23T03:56:35.140Z,92
2018-01-23T03:57:35.108Z,92
2018-01-23T03:58:34.936Z,92
2018-01-23T03:59:34.931Z,92
2018-01-23T04:00:35.102Z,92
2018-01-23T04:01:34.941Z,92
2018-01-23T04:02:35.698Z,92
2018-01-23T04:03:34.944Z,92
2018-01-23T04:04:34.930Z,92
2018-01-23T04:05:35.105Z,92
2018-01-23T04:06:34.946Z,92
2018-01-23T04:07:35.132Z,92
2018-01-23T04:08:35.416Z,92
2018-01-23T04:09:34.943Z,92
2018-01-23T04:10:35.137Z,92
2018-01-23T04:11:34.966Z,92
2018-01-23T04:12:34.984Z,92
2018-01-23T04:13:35.157Z,92
2018-01-23T04:14:34.948Z,92
2018-01-23T04:15:35.095Z,93
2018-01-23T04:16:35.098Z,93
2018-01-23T04:17:35.327Z,93
2018-01-23T04:18:35.398Z,93
2018-01-23T04:19:35.397Z,93
2018-01-23T04:20:35.377Z,93
2018-01-23T04:21:34.990Z,93
2018-01-23T04:22:34.984Z,93
2018-01-23T04:23:35.366Z,93
2018-01-23T04:24:35.135Z,93
2018-01-23T04:25:35.157Z,93
2018-01-23T04:26:34.978Z,93
2018-01-23T04:27:35.156Z,93
2018-01-23T04:28:35.398Z,93
2018-01-23T04:29:34.991Z,93
2018-01-23T04:30:35.040Z,93
2018-01-23T04:31:35.324Z,94
2018-01-23T04:34:35.018Z,94
2018-01-23T04:35:35.381Z,94
2018-01-23T04:37:35.189Z,94
2018-01-23T04:38:34.983Z,94
2018-01-23T04:39:35.201Z,94
2018-01-23T04:40:34.992Z,94
2018-01-23T04:41:35.282Z,94
2018-01-23T04:42:35.170Z,94
2018-01-23T04:43:35.346Z,94
2018-01-23T04:44:35.012Z,94
2018-01-23T04:45:35.412Z,94
2018-01-23T04:46:35.065Z,94
2018-01-23T04:47:35.041Z,94
2018-01-23T04:48:34.996Z,95
2018-01-23T04:49:35.397Z,95
2018-01-23T04:51:35.010Z,95
2018-01-23T04:52:35.471Z,95
2018-01-23T04:53:35.089Z,95
2018-01-23T04:54:35.069Z,95
2018-01-23T04:55:35.196Z,95
2018-01-23T04:56:35.051Z,95
2018-01-23T04:57:35.051Z,95
2018-01-23T04:58:35.480Z,95
2018-01-23T04:59:35.063Z,95
2018-01-23T05:00:35.458Z,95
2018-01-23T05:01:35.217Z,95
2018-01-23T05:02:35.109Z,95
2018-01-23T05:03:35.089Z,95
2018-01-23T05:04:35.439Z,94
2018-01-23T05:05:35.049Z,94
2018-01-23T05:06:35.458Z,94
2018-01-23T05:07:35.454Z,94
2018-01-23T05:08:35.195Z,94
2018-01-23T05:09:35.325Z,94
2018-01-23T05:10:35.282Z,94
2018-01-23T05:11:35.248Z,94
2018-01-23T05:12:35.099Z,94
2018-01-23T05:13:35.222Z,94
2018-01-23T05:14:35.108Z,94
2018-01-23T05:15:35.124Z,94
2018-01-23T05:16:35.217Z,94
2018-01-23T05:17:35.077Z,94
2018-01-23T05:18:35.054Z,94
2018-01-23T05:19:35.038Z,94
2018-01-23T05:20:35.127Z,94
2018-01-23T05:21:35.110Z,94
2018-01-23T05:22:35.214Z,94
2018-01-23T05:23:35.224Z,94
2018-01-23T05:24:35.074Z,94
2018-01-23T05:25:35.522Z,94
2018-01-23T05:26:35.057Z,94
2018-01-23T05:27:35.438Z,94
2018-01-23T05:28:35.127Z,94
2018-01-23T05:29:35.232Z,94
2018-01-23T05:30:35.095Z,94
2018-01-23T05:31:35.273Z,94
2018-01-23T05:33:35.483Z,94
2018-01-23T05:34:35.310Z,94
2018-01-23T05:35:35.253Z,94
2018-01-23T05:36:35.118Z,94
2018-01-23T05:37:35.290Z,94
2018-01-23T05:38:35.397Z,94
2018-01-23T05:39:35.477Z,94
2018-01-23T05:40:35.492Z,94
2018-01-23T05:41:35.104Z,94
2018-01-23T05:42:35.106Z,94
2018-01-23T05:43:35.130Z,94
2018-01-23T05:44:35.118Z,94
2018-01-23T05:45:35.101Z,94
2018-01-23T05:46:35.127Z,94
2018-01-23T05:47:35.549Z,94
2018-01-23T05:48:35.183Z,94
2018-01-23T05:49:35.496Z,94
2018-01-23T05:50:35.288Z,94
2018-01-23T05:52:35.128Z,94
2018-01-23T05:53:35.131Z,94
2018-01-23T05:54:35.308Z,94
2018-01-23T05:55:35.123Z,94
2018-01-23T05:56:35.310Z,94
2018-01-23T05:57:35.400Z,94
2018-01-23T05:58:35.158Z,94
2018-01-23T05:59:35.121Z,94
2018-01-23T06:00:35.519Z,94
2018-01-23T06:01:35.158Z,94
2018-01-23T06:02:35.492Z,94
2018-01-23T06:03:35.141Z,94
2018-01-23T06:04:35.497Z,94
2018-01-23T06:05:35.179Z,94
2018-01-23T06:06:35.313Z,94
2018-01-23T06:07:35.181Z,94
2018-01-23T06:08:35.221Z,94
2018-01-23T06:10:35.194Z,94
2018-01-23T06:11:35.197Z,94
2018-01-23T06:12:35.162Z,94
2018-01-23T06:13:36.269Z,94
2018-01-23T06:14:35.150Z,94
2018-01-23T06:15:35.459Z,94
2018-01-23T06:17:35.598Z,94
2018-01-23T06:18:35.591Z,94
2018-01-23T06:19:35.199Z,94
2018-01-23T06:20:35.368Z,94
2018-01-23T06:21:35.181Z,94
2018-01-23T06:22:35.187Z,94
2018-01-23T06:23:35.172Z,94
2018-01-23T06:24:35.174Z,94
2018-01-23T06:25:35.605Z,94
2018-01-23T06:26:35.207Z,94
2018-01-23T06:27:35.339Z,94
2018-01-23T06:28:35.599Z,94
2018-01-23T06:29:35.189Z,94
2018-01-23T06:32:35.341Z,94
2018-01-23T06:35:35.208Z,94
2018-01-23T06:36:35.208Z,94
2018-01-23T06:37:35.191Z,94
2018-01-23T06:38:35.354Z,94
2018-01-23T06:39:35.456Z,94
2018-01-23T06:40:35.280Z,94
2018-01-23T06:41:35.221Z,94
2018-01-23T06:42:35.227Z,94
2018-01-23T06:44:35.213Z,94
2018-01-23T06:45:35.654Z,94
2018-01-23T06:46:35.609Z,94
2018-01-23T06:47:35.285Z,94
2018-01-23T06:48:35.248Z,94
2018-01-23T06:49:35.680Z,94
2018-01-23T06:50:35.617Z,94
2018-01-23T06:51:35.681Z,94
2018-01-23T06:53:35.255Z,94
2018-01-23T06:54:35.440Z,94
2018-01-23T06:55:35.304Z,94
2018-01-23T06:57:35.280Z,94
2018-01-23T06:59:35.253Z,94
2018-01-23T07:00:35.621Z,94
2018-01-23T07:01:35.639Z,94
2018-01-23T07:02:35.481Z,94
2018-01-23T07:03:35.645Z,94
2018-01-23T07:04:35.290Z,94
2018-01-23T07:05:35.315Z,94
2018-01-23T07:06:35.267Z,94
2018-01-23T07:07:35.432Z,94
2018-01-23T07:09:35.316Z,94
2018-01-23T07:11:35.747Z,94
2018-01-23T07:12:35.318Z,94
2018-01-23T07:13:35.468Z,94
2018-01-23T07:14:35.400Z,94
2018-01-23T07:15:35.333Z,94
2018-01-23T07:16:35.318Z,94
2018-01-23T07:17:35.662Z,94
2018-01-23T07:18:35.511Z,94
2018-01-23T07:19:35.303Z,94
2018-01-23T07:20:35.396Z,94
2018-01-23T07:21:35.315Z,94
2018-01-23T07:22:35.362Z,94
2018-01-23T07:23:35.737Z,94
2018-01-23T07:24:35.317Z,94
2018-01-23T07:25:35.512Z,94
2018-01-23T07:26:35.761Z,93
2018-01-23T07:27:35.367Z,93
2018-01-23T07:28:35.405Z,94
2018-01-23T07:29:35.487Z,94
2018-01-23T07:30:35.346Z,94
2018-01-23T07:31:35.371Z,93
2018-01-23T07:32:35.558Z,93
2018-01-23T07:33:35.385Z,93
2018-01-23T07:34:35.707Z,93
2018-01-23T07:35:35.527Z,93
2018-01-23T07:36:35.407Z,93
2018-01-23T07:37:35.521Z,93
2018-01-23T07:38:35.555Z,93
2018-01-23T07:39:35.382Z,94
2018-01-23T07:40:35.390Z,94
2018-01-23T07:41:35.398Z,94
2018-01-23T07:42:35.343Z,94
2018-01-23T07:43:35.398Z,94
2018-01-23T07:44:35.737Z,94
2018-01-23T07:45:35.546Z,94
2018-01-23T07:46:35.530Z,94
2018-01-23T07:47:35.585Z,94
2018-01-23T07:48:35.544Z,94
2018-01-23T07:49:35.408Z,94
2018-01-23T07:50:35.792Z,94
2018-01-23T07:52:35.408Z,94
2018-01-23T07:53:35.576Z,94
2018-01-23T07:54:35.811Z,94
2018-01-23T07:55:35.451Z,94
2018-01-23T07:56:35.803Z,94
2018-01-23T07:57:35.414Z,94
2018-01-23T07:59:35.862Z,94
2018-01-23T08:00:35.813Z,94
2018-01-23T08:02:35.605Z,94
2018-01-23T08:03:35.440Z,94
2018-01-23T08:04:35.397Z,94
2018-01-23T08:05:35.758Z,94
2018-01-23T08:06:35.978Z,94
2018-01-23T08:07:35.737Z,94
2018-01-23T08:08:35.422Z,94
2018-01-23T08:10:35.560Z,94
2018-01-23T08:11:35.788Z,94
2018-01-23T08:12:35.496Z,94
2018-01-23T08:13:35.515Z,94
2018-01-23T08:15:35.816Z,93
2018-01-23T08:16:35.809Z,93
2018-01-23T08:17:35.895Z,93
2018-01-23T08:18:35.585Z,93
2018-01-23T08:19:35.607Z,93
2018-01-23T08:20:35.579Z,93
2018-01-23T08:21:35.377Z,93
2018-01-23T08:22:52.947Z,93
2018-01-23T08:23:52.947Z,93
2018-01-23T08:26:53.274Z,93
2018-01-23T08:27:52.897Z,93
2018-01-23T08:28:53.191Z,93
2018-01-23T08:29:52.961Z,93
2018-01-23T08:30:52.915Z,93
2018-01-23T08:31:52.927Z,93
2018-01-23T08:32:52.938Z,93
2018-01-23T08:33:52.983Z,93
2018-01-23T08:34:53.166Z,93
2018-01-23T08:35:53.171Z,93
2018-01-23T08:36:52.944Z,93
2018-01-23T08:37:52.974Z,93
2018-01-23T08:38:54.053Z,93
2018-01-23T08:39:53.192Z,93
2018-01-23T08:41:53.402Z,93
2018-01-23T08:42:52.972Z,93
2018-01-23T08:43:52.964Z,93
2018-01-23T08:44:53.357Z,93
2018-01-23T08:45:53.432Z,93
2018-01-23T08:47:52.933Z,94
2018-01-23T08:48:52.942Z,94
2018-01-23T08:49:53.350Z,94
2018-01-23T08:50:53.203Z,93
2018-01-23T08:51:52.986Z,93
2018-01-23T08:52:52.968Z,93
2018-01-23T08:53:53.165Z,93
2018-01-23T08:54:53.129Z,93
2018-01-23T08:55:52.958Z,93
2018-01-23T08:56:53.128Z,93
2018-01-23T08:57:52.956Z,93
2018-01-23T08:58:53.372Z,93
2018-01-23T09:00:53.360Z,93
2018-01-23T09:01:53.155Z,93
2018-01-23T09:02:53.153Z,93
2018-01-23T09:03:53.341Z,93
2018-01-23T09:04:53.148Z,93
2018-01-23T09:05:53.051Z,93
2018-01-23T09:06:52.989Z,93
2018-01-23T09:07:53.188Z,93
2018-01-23T09:08:53.212Z,93
2018-01-23T09:09:53.158Z,93
2018-01-23T09:10:52.973Z,93
2018-01-23T09:11:53.356Z,93
2018-01-23T09:12:53.396Z,93
2018-01-23T09:13:53.187Z,93
2018-01-23T09:14:53.180Z,93
2018-01-23T09:15:53.145Z,93
2018-01-23T09:16:53.386Z,93
2018-01-23T09:17:53.174Z,93
2018-01-23T09:18:53.001Z,93
2018-01-23T09:19:53.064Z,93
2018-01-23T09:20:53.192Z,93
2018-01-23T09:22:53.411Z,93
2018-01-23T09:23:53.373Z,93
2018-01-23T09:26:53.041Z,93
2018-01-23T09:27:53.109Z,93
2018-01-23T09:28:53.183Z,93
2018-01-23T09:29:53.183Z,93
2018-01-23T09:31:53.471Z,93
2018-01-23T09:32:53.044Z,93
2018-01-23T09:33:53.031Z,93
2018-01-23T09:34:53.034Z,93
2018-01-23T09:35:53.409Z,93
2018-01-23T09:36:53.095Z,93
2018-01-23T09:38:53.055Z,93
2018-01-23T09:39:53.242Z,93
2018-01-23T09:40:53.185Z,93
2018-01-23T09:41:53.456Z,93
2018-01-23T09:42:53.301Z,93
2018-01-23T09:43:53.051Z,93
2018-01-23T09:44:53.252Z,93
2018-01-23T09:45:53.191Z,93
2018-01-23T09:46:53.064Z,93
2018-01-23T09:47:53.048Z,93
2018-01-23T09:48:53.256Z,93
2018-01-23T09:49:53.073Z,93
2018-01-23T09:50:53.037Z,93
2018-01-23T09:51:53.428Z,93
2018-01-23T09:52:53.252Z,93
2018-01-23T09:53:53.133Z,93
2018-01-23T09:54:53.295Z,93
2018-01-23T09:55:53.262Z,93
2018-01-23T09:56:53.046Z,92
2018-01-23T09:57:53.109Z,92
2018-01-23T09:58:53.098Z,92
2018-01-23T09:59:53.461Z,92
2018-01-23T10:00:53.432Z,92
2018-01-23T10:01:53.135Z,92
2018-01-23T10:03:53.098Z,92
2018-01-23T10:04:53.162Z,92
2018-01-23T10:05:53.517Z,92
2018-01-23T10:06:53.113Z,92
2018-01-23T10:07:53.146Z,92
2018-01-23T10:08:53.155Z,92
2018-01-23T10:09:53.531Z,92
2018-01-23T10:10:53.192Z,92
2018-01-23T10:11:53.152Z,92
2018-01-23T10:12:53.187Z,92
2018-01-23T10:13:53.177Z,92
2018-01-23T10:14:53.237Z,92
2018-01-23T10:15:53.325Z,92
2018-01-23T10:16:53.186Z,92
2018-01-23T10:17:53.347Z,92
2018-01-23T10:18:53.153Z,93
2018-01-23T10:19:53.650Z,93
2018-01-23T10:20:53.419Z,93
2018-01-23T10:21:53.707Z,92
2018-01-23T10:22:53.728Z,92
2018-01-23T10:23:53.671Z,92
2018-01-23T10:24:53.684Z,92
2018-01-23T10:25:53.418Z,92
2018-01-23T10:26:53.463Z,92
2018-01-23T10:27:53.704Z,92
2018-01-23T10:28:53.719Z,92
2018-01-23T10:29:53.363Z,92
2018-01-23T10:30:53.696Z,92
2018-01-23T10:31:53.374Z,92
2018-01-23T10:32:53.571Z,92
2018-01-23T10:33:53.556Z,92
2018-01-23T10:35:53.341Z,92
2018-01-23T10:36:53.621Z,92
2018-01-23T10:37:53.657Z,92
2018-01-23T10:38:53.683Z,92
2018-01-23T10:39:53.623Z,92
2018-01-23T10:40:53.403Z,92
2018-01-23T10:41:53.456Z,91
2018-01-23T10:42:53.700Z,91
2018-01-23T10:44:53.667Z,92
2018-01-23T10:45:53.624Z,92
2018-01-23T10:46:53.668Z,91
2018-01-23T10:47:53.599Z,91
2018-01-23T10:48:53.448Z,91
2018-01-23T10:49:53.813Z,91
2018-01-23T10:50:53.694Z,91
2018-01-23T10:51:53.688Z,91
2018-01-23T10:52:53.383Z,91
2018-01-23T10:53:53.594Z,91
2018-01-23T10:54:53.746Z,91
2018-01-23T10:55:53.501Z,91
2018-01-23T10:56:53.508Z,91
2018-01-23T10:57:53.375Z,90
2018-01-23T10:58:53.538Z,90
2018-01-23T10:59:53.689Z,90
2018-01-23T11:00:53.589Z,90
2018-01-23T11:01:53.712Z,90
2018-01-23T11:02:53.436Z,90
2018-01-23T11:03:53.451Z,90
2018-01-23T11:04:53.662Z,90
2018-01-23T11:05:53.463Z,90
2018-01-23T11:06:53.401Z,90
2018-01-23T11:07:53.698Z,90
2018-01-23T11:08:54.267Z,90
2018-01-23T11:09:53.704Z,90
2018-01-23T11:10:53.647Z,90
2018-01-23T11:11:53.706Z,90
2018-01-23T11:12:53.728Z,90
2018-01-23T11:13:53.521Z,90
2018-01-23T11:15:55.664Z,90
2018-01-23T11:16:53.419Z,90
2018-01-23T11:17:53.473Z,90
2018-01-23T11:18:53.818Z,90
2018-01-23T11:19:53.725Z,90
2018-01-23T11:20:53.694Z,90
2018-01-23T11:21:53.710Z,90
2018-01-23T11:22:53.739Z,90
2018-01-23T11:23:53.413Z,90
2018-01-23T11:24:53.642Z,90
2018-01-23T11:25:54.158Z,90
2018-01-23T11:26:53.418Z,90
2018-01-23T11:27:53.645Z,90
2018-01-23T11:29:53.635Z,90
2018-01-23T11:30:53.719Z,89
2018-01-23T11:31:53.700Z,89
2018-01-23T11:32:53.607Z,89
2018-01-23T11:33:53.705Z,89
2018-01-23T11:34:53.641Z,89
2018-01-23T11:35:53.730Z,90
2018-01-23T11:36:53.709Z,90
2018-01-23T11:37:53.671Z,90
2018-01-23T11:38:53.686Z,90
2018-01-23T11:39:53.446Z,90
2018-01-23T11:40:53.671Z,90
2018-01-23T11:41:53.495Z,90
2018-01-23T11:42:53.702Z,89
2018-01-23T11:43:53.664Z,89
2018-01-23T11:44:53.461Z,89
2018-01-23T11:45:53.636Z,90
2018-01-23T11:46:53.768Z,90
2018-01-23T11:47:53.468Z,89
2018-01-23T11:48:53.477Z,89
2018-01-23T11:49:53.483Z,89
2018-01-23T11:50:53.517Z,89
2018-01-23T11:52:53.712Z,89
2018-01-23T11:53:53.532Z,89
2018-01-23T11:54:53.522Z,89
2018-01-23T11:55:53.820Z,89
2018-01-23T11:56:53.425Z,89
2018-01-23T11:58:53.480Z,89
2018-01-23T11:59:53.526Z,89
2018-01-23T12:00:53.802Z,89
2018-01-23T12:01:53.807Z,89
2018-01-23T12:02:53.510Z,89
2018-01-23T12:03:53.585Z,88
2018-01-23T12:04:53.531Z,88
2018-01-23T12:05:53.539Z,88
2018-01-23T12:06:53.552Z,88
2018-01-23T12:07:53.743Z,88
2018-01-23T12:08:53.761Z,89
2018-01-23T12:09:53.481Z,89
2018-01-23T12:10:53.808Z,89
2018-01-23T12:11:53.701Z,89
2018-01-23T12:12:53.518Z,89
2018-01-23T12:13:53.689Z,89
2018-01-23T12:14:53.853Z,89
2018-01-23T12:15:53.507Z,88
2018-01-23T12:16:53.864Z,88
2018-01-23T12:17:53.692Z,88
2018-01-23T12:18:53.519Z,88
2018-01-23T12:19:53.520Z,88
2018-01-23T12:20:54.544Z,88
2018-01-23T12:21:53.564Z,88
2018-01-23T12:22:53.878Z,88
2018-01-23T12:23:53.736Z,89
2018-01-23T12:25:53.566Z,89
2018-01-23T12:26:53.749Z,89
2018-01-23T12:27:53.569Z,89
2018-01-23T12:28:54.215Z,89
2018-01-23T12:29:53.736Z,89
2018-01-23T12:30:53.757Z,89
2018-01-23T12:31:53.840Z,89
2018-01-23T12:32:53.789Z,89
2018-01-23T12:33:53.765Z,89
2018-01-23T12:34:53.610Z,89
2018-01-23T12:35:53.571Z,89
2018-01-23T12:36:53.905Z,89
2018-01-23T12:37:53.827Z,89
2018-01-23T12:38:53.566Z,89
2018-01-23T12:40:53.884Z,89
2018-01-23T12:41:53.523Z,89
2018-01-23T12:42:53.818Z,89
2018-01-23T12:43:53.899Z,88
2018-01-23T12:44:53.603Z,88
2018-01-23T12:45:53.610Z,88
2018-01-23T12:46:53.581Z,88
2018-01-23T12:47:53.730Z,88
2018-01-23T12:48:53.792Z,88
2018-01-23T12:49:53.806Z,88
2018-01-23T12:50:53.923Z,88
2018-01-23T12:51:53.888Z,88
2018-01-23T12:52:53.682Z,88
2018-01-23T12:53:53.671Z,88
2018-01-23T12:54:53.785Z,87
2018-01-23T12:55:53.580Z,87
2018-01-23T12:56:53.898Z,88
2018-01-23T12:57:53.596Z,88
2018-01-23T12:58:53.659Z,88
2018-01-23T12:59:53.639Z,86
2018-01-23T13:00:53.687Z,86
2018-01-23T13:01:53.649Z,85
2018-01-23T13:02:53.923Z,85
2018-01-23T13:03:53.901Z,85
2018-01-23T13:04:53.684Z,85
2018-01-23T13:06:53.686Z,85
2018-01-23T13:08:53.683Z,85
2018-01-23T13:09:53.686Z,84
2018-01-23T13:10:54.017Z,84
2018-01-23T13:11:53.608Z,84
2018-01-23T13:12:53.912Z,84
2018-01-23T13:13:53.660Z,84
2018-01-23T13:14:53.718Z,84
2018-01-23T13:15:53.959Z,84
2018-01-23T13:16:53.679Z,84
2018-01-23T13:17:53.943Z,84
2018-01-23T13:18:53.773Z,84
2018-01-23T13:19:53.659Z,83
2018-01-23T13:20:53.954Z,83
2018-01-23T13:22:53.728Z,83
2018-01-23T13:23:53.702Z,83
2018-01-23T13:24:53.801Z,83
2018-01-23T13:25:54.001Z,83
2018-01-23T13:26:54.475Z,83
2018-01-23T13:27:53.712Z,82
2018-01-23T13:28:53.908Z,82
2018-01-23T13:29:53.920Z,82
2018-01-23T13:30:53.952Z,82
2018-01-23T13:31:53.914Z,82
2018-01-23T13:32:53.760Z,82
2018-01-23T13:33:53.701Z,82
2018-01-23T13:34:53.892Z,82
2018-01-23T13:36:53.724Z,82
2018-01-23T13:37:53.713Z,83
2018-01-23T13:38:54.299Z,83
2018-01-23T13:39:53.710Z,84
2018-01-23T13:40:53.716Z,84
2018-01-23T13:42:53.914Z,83
2018-01-23T13:43:53.696Z,83
2018-01-23T13:44:53.817Z,84
2018-01-23T13:46:53.771Z,84
2018-01-23T13:47:53.897Z,83
2018-01-23T13:48:53.947Z,83
2018-01-23T13:50:54.576Z,83
2018-01-23T13:51:53.917Z,83
2018-01-23T13:52:54.020Z,83
2018-01-23T13:53:54.017Z,83
2018-01-23T13:54:53.688Z,83
2018-01-23T13:56:53.743Z,82
2018-01-23T13:57:53.774Z,82
2018-01-23T13:58:53.800Z,82
2018-01-23T13:59:53.736Z,82
2018-01-23T14:00:53.763Z,82
2018-01-23T14:01:54.159Z,82
2018-01-23T14:02:53.783Z,82
2018-01-23T14:03:53.793Z,82
2018-01-23T14:04:54.044Z,82
2018-01-23T14:05:54.059Z,82
2018-01-23T14:06:53.792Z,82
2018-01-23T14:08:54.006Z,83
2018-01-23T14:10:54.096Z,82
2018-01-23T14:11:53.956Z,82
2018-01-23T14:12:54.043Z,83
2018-01-23T14:13:54.015Z,83
2018-01-23T14:14:54.032Z,83
2018-01-23T14:15:53.785Z,83
2018-01-23T14:16:53.837Z,83
2018-01-23T14:17:53.786Z,83
2018-01-23T14:18:53.836Z,83
2018-01-23T14:19:53.991Z,83
2018-01-23T14:21:54.089Z,83
2018-01-23T14:22:54.003Z,82
2018-01-23T14:23:54.136Z,82
2018-01-23T14:24:54.090Z,82
2018-01-23T14:25:54.101Z,82
2018-01-23T14:26:54.021Z,82
2018-01-23T14:27:53.771Z,82
2018-01-23T14:28:54.060Z,82
2018-01-23T14:29:54.040Z,82
2018-01-23T14:30:53.829Z,83
2018-01-23T14:31:53.861Z,83
2018-01-23T14:32:53.791Z,83
2018-01-23T14:33:54.116Z,83
2018-01-23T14:34:54.183Z,83
2018-01-23T14:35:54.038Z,84
2018-01-23T14:36:54.049Z,84
2018-01-23T14:37:53.868Z,84
2018-01-23T14:38:54.595Z,84
2018-01-23T14:40:54.077Z,84
2018-01-23T14:42:53.827Z,84
2018-01-23T14:44:53.860Z,85
2018-01-23T14:45:53.835Z,85
2018-01-23T14:46:53.876Z,85
2018-01-23T14:49:54.110Z,85
2018-01-23T14:50:53.859Z,85
2018-01-23T14:51:54.133Z,85
2018-01-23T14:52:53.882Z,85
2018-01-23T14:53:54.089Z,85
2018-01-23T14:54:54.041Z,85
2018-01-23T14:55:53.936Z,85
2018-01-23T14:57:53.900Z,84
2018-01-23T14:58:54.131Z,84
2018-01-23T14:59:54.155Z,84
2018-01-23T15:00:54.530Z,84
2018-01-23T15:01:54.191Z,84
2018-01-23T15:02:53.994Z,84
2018-01-23T15:03:53.909Z,83
2018-01-23T15:04:53.851Z,83
2018-01-23T15:05:53.907Z,83
2018-01-23T15:06:53.891Z,84
2018-01-23T15:07:54.185Z,84
2018-01-23T15:08:53.959Z,85
2018-01-23T15:09:53.917Z,85
2018-01-23T15:10:54.169Z,85
2018-01-23T15:11:53.825Z,86
2018-01-23T15:12:53.851Z,86
2018-01-23T15:13:54.188Z,86
2018-01-23T15:14:54.112Z,86
2018-01-23T15:15:54.001Z,86
2018-01-23T15:17:54.171Z,86
2018-01-23T15:18:53.896Z,86
2018-01-23T15:19:54.419Z,86
2018-01-23T15:20:53.979Z,86
2018-01-23T15:21:54.156Z,86
2018-01-23T15:23:53.968Z,86
2018-01-23T15:24:54.214Z,86
2018-01-23T15:25:54.257Z,86
2018-01-23T15:26:53.940Z,86
2018-01-23T15:27:53.942Z,86
2018-01-23T15:28:54.099Z,86
2018-01-23T15:29:54.217Z,86
2018-01-23T15:30:53.959Z,86